createdAt,value
2022-07-30T00:02:36.422Z,18.62
2022-07-30T00:07:39.695Z,18.59
2022-07-30T00:12:43.076Z,18.60
2022-07-30T00:17:46.758Z,18.62
2022-07-30T00:22:52.833Z,18.66
2022-07-30T00:27:56.400Z,18.66
2022-07-30T00:33:00.996Z,18.65
2022-07-30T00:38:04.585Z,18.62
2022-07-30T00:43:08.698Z,18.58
2022-07-30T00:48:13.804Z,18.55
2022-07-30T00:53:17.575Z,18.52
2022-07-30T00:58:21.007Z,18.52
2022-07-30T01:03:25.269Z,18.51
2022-07-30T01:08:28.440Z,18.52
2022-07-30T01:13:31.669Z,18.58
2022-07-30T01:18:55.323Z,18.62
2022-07-30T01:24:27.049Z,18.65
2022-07-30T01:29:32.159Z,18.65
2022-07-30T01:34:36.181Z,18.64
2022-07-30T01:39:41.714Z,18.66
2022-07-30T01:44:47.863Z,18.67
2022-07-30T01:49:53.007Z,18.69
2022-07-30T01:55:05.170Z,18.69
2022-07-30T02:00:20.268Z,18.68
2022-07-30T02:05:27.659Z,18.65
2022-07-30T02:10:52.865Z,18.64
2022-07-30T02:16:14.312Z,18.64
2022-07-30T02:21:19.918Z,18.66
2022-07-30T02:26:26.285Z,18.66
2022-07-30T02:31:32.200Z,18.64
2022-07-30T02:36:37.612Z,18.62
2022-07-30T02:41:49.251Z,18.59
2022-07-30T02:46:54.161Z,18.56
2022-07-30T02:52:22.131Z,18.54
2022-07-30T02:57:29.429Z,18.52
2022-07-30T03:02:43.628Z,18.49
2022-07-30T03:07:47.942Z,18.47
2022-07-30T03:12:55.470Z,18.45
2022-07-30T03:18:00.916Z,18.42
2022-07-30T03:23:04.932Z,18.41
2022-07-30T03:28:09.145Z,18.39
2022-07-30T03:33:13.276Z,18.37
2022-07-30T03:38:23.915Z,18.35
2022-07-30T03:43:33.140Z,18.35
2022-07-30T03:48:38.983Z,18.35
2022-07-30T03:53:43.120Z,18.36
2022-07-30T03:59:05.645Z,18.38
2022-07-30T04:04:11.805Z,18.43
2022-07-30T04:09:16.491Z,18.48
2022-07-30T04:14:29.040Z,18.54
2022-07-30T04:19:45.030Z,18.59
2022-07-30T04:24:49.779Z,18.65
2022-07-30T04:29:54.473Z,18.73
2022-07-30T04:34:57.980Z,18.82
2022-07-30T04:40:47.628Z,18.96
2022-07-30T04:46:03.852Z,19.07
2022-07-30T04:51:10.023Z,19.13
2022-07-30T04:56:14.577Z,19.22
2022-07-30T05:01:24.435Z,19.32
2022-07-30T05:06:44.212Z,19.39
2022-07-30T05:12:13.474Z,19.42
2022-07-30T05:17:17.352Z,19.50
2022-07-30T05:22:20.508Z,19.56
2022-07-30T05:27:23.864Z,19.64
2022-07-30T05:32:31.447Z,19.69
2022-07-30T05:37:44.301Z,19.75
2022-07-30T05:42:47.946Z,19.81
2022-07-30T05:47:51.251Z,19.86
2022-07-30T05:53:00.327Z,19.89
2022-07-30T05:58:23.410Z,19.95
2022-07-30T06:03:26.685Z,20.01
2022-07-30T06:08:57.049Z,20.10
2022-07-30T06:14:01.404Z,20.22
2022-07-30T06:19:19.760Z,20.36
2022-07-30T06:24:29.020Z,20.48
2022-07-30T06:29:54.979Z,20.54
2022-07-30T06:35:04.325Z,20.58
2022-07-30T06:40:09.608Z,20.67
2022-07-30T06:45:45.061Z,20.71
2022-07-30T06:51:21.033Z,20.74
2022-07-30T06:56:26.451Z,20.82
2022-07-30T07:01:39.577Z,20.85
2022-07-30T07:06:43.389Z,20.88
2022-07-30T07:12:00.677Z,20.88
2022-07-30T07:17:10.325Z,20.85
2022-07-30T07:22:49.428Z,20.89
2022-07-30T07:28:10.883Z,21.05
2022-07-30T07:33:17.653Z,21.17
2022-07-30T07:38:21.966Z,21.35
2022-07-30T07:43:26.839Z,21.53
2022-07-30T07:48:32.858Z,21.64
2022-07-30T07:54:20.319Z,21.80
2022-07-30T07:59:39.983Z,22.01
2022-07-30T08:05:06.068Z,22.19
2022-07-30T08:10:32.482Z,22.35
2022-07-30T08:16:06.664Z,22.34
2022-07-30T08:21:28.822Z,22.53
2022-07-30T08:26:32.230Z,22.64
2022-07-30T08:31:37.521Z,22.60
2022-07-30T08:36:41.951Z,22.58
2022-07-30T08:41:45.447Z,22.40
2022-07-30T08:46:53.513Z,22.23
2022-07-30T08:52:20.290Z,21.95
2022-07-30T08:57:35.684Z,21.77
2022-07-30T09:02:39.321Z,21.89
2022-07-30T09:07:43.917Z,21.95
2022-07-30T09:12:52.329Z,22.07
2022-07-30T09:18:00.817Z,22.09
2022-07-30T09:23:06.513Z,21.79
2022-07-30T09:28:30.965Z,21.45
2022-07-30T09:33:52.698Z,21.26
2022-07-30T09:39:38.078Z,21.06
2022-07-30T09:45:09.012Z,20.82
2022-07-30T09:50:17.950Z,20.65
2022-07-30T09:55:41.360Z,20.37
2022-07-30T10:00:58.224Z,20.11
2022-07-30T10:06:34.784Z,20.05
2022-07-30T10:11:42.926Z,20.00
2022-07-30T10:16:49.393Z,19.99
2022-07-30T10:21:58.347Z,20.09
2022-07-30T10:27:41.378Z,20.13
2022-07-30T10:33:00.115Z,20.15
2022-07-30T10:38:08.754Z,20.08
2022-07-30T10:43:32.854Z,19.92
2022-07-30T10:48:36.295Z,19.89
2022-07-30T10:53:42.936Z,19.74
2022-07-30T10:59:09.437Z,19.81
2022-07-30T11:04:33.963Z,19.85
2022-07-30T11:09:42.818Z,19.96
2022-07-30T11:14:46.616Z,20.00
2022-07-30T11:20:05.302Z,20.17
2022-07-30T11:25:12.641Z,20.08
2022-07-30T11:30:17.148Z,20.15
2022-07-30T11:35:34.939Z,20.15
2022-07-30T11:41:01.350Z,19.89
2022-07-30T11:46:28.949Z,19.85
2022-07-30T11:51:44.996Z,19.81
2022-07-30T11:56:54.359Z,19.80
2022-07-30T12:02:01.114Z,19.84
2022-07-30T12:07:04.719Z,19.71
2022-07-30T12:12:24.423Z,19.62
2022-07-30T12:17:44.878Z,19.54
2022-07-30T12:22:48.234Z,19.44
2022-07-30T12:27:52.387Z,19.38
2022-07-30T12:32:55.682Z,19.41
2022-07-30T12:38:04.637Z,19.47
2022-07-30T12:43:13.656Z,19.44
2022-07-30T12:48:17.299Z,19.45
2022-07-30T12:53:29.878Z,19.43
2022-07-30T12:58:38.343Z,19.36
2022-07-30T13:03:42.363Z,19.24
2022-07-30T13:08:55.052Z,19.15
2022-07-30T13:13:58.341Z,18.98
2022-07-30T13:19:03.353Z,18.84
2022-07-30T13:24:07.750Z,18.72
2022-07-30T13:29:13.857Z,18.62
2022-07-30T13:34:17.340Z,18.55
2022-07-30T13:39:20.716Z,18.51
2022-07-30T13:44:24.134Z,18.43
2022-07-30T13:49:27.651Z,18.36
2022-07-30T13:54:57.900Z,18.32
2022-07-30T14:00:11.434Z,18.26
2022-07-30T14:05:15.412Z,18.18
2022-07-30T14:10:28.525Z,18.09
2022-07-30T14:15:34.775Z,18.02
2022-07-30T14:20:39.703Z,17.99
2022-07-30T14:25:45.339Z,17.94
2022-07-30T14:30:49.460Z,17.88
2022-07-30T14:35:57.553Z,17.79
2022-07-30T14:41:05.854Z,17.69
2022-07-30T14:46:09.388Z,17.63
2022-07-30T14:51:17.932Z,17.61
2022-07-30T14:56:26.545Z,17.58
2022-07-30T15:01:30.270Z,17.50
2022-07-30T15:06:34.056Z,17.43
2022-07-30T15:12:04.325Z,17.36
2022-07-30T15:17:04.226Z,17.32
2022-07-30T15:22:08.141Z,17.31
2022-07-30T15:27:14.228Z,17.31
2022-07-30T15:32:19.643Z,17.31
2022-07-30T15:37:23.019Z,17.31
2022-07-30T15:42:31.385Z,17.30
2022-07-30T15:47:36.525Z,17.32
2022-07-30T15:52:39.886Z,17.30
2022-07-30T15:57:43.582Z,17.27
2022-07-30T16:02:46.904Z,17.23
